Time;durP1;ratioP1;P1;durP2;ratioP2;P2;SDS_P1;SDS_P2;PMS_P1;PMS_P2;Temp;Humidity;BMP_temperature;BMP_pressure;BME280_temperature;BME280_humidity;BME280_pressure;Samples;Min_cycle;Max_cycle;Signal;HPM_P1;HPM_P2
2021/04/11 00:01:18;;;;;;;7.80;5.87;;;11.40;99.90;;;;;;5009017;28;20572;-66
2021/04/11 00:03:44;;;;;;;6.37;5.77;;;11.40;99.90;;;;;;5008579;28;20889;-67
2021/04/11 00:06:12;;;;;;;10.40;6.57;;;11.40;99.90;;;;;;5008815;28;20961;-65
2021/04/11 00:08:38;;;;;;;6.77;6.10;;;11.30;99.90;;;;;;5008824;28;20972;-66
2021/04/11 00:11:05;;;;;;;6.50;5.13;;;11.30;99.90;;;;;;5008735;28;20541;-67
2021/04/11 00:13:33;;;;;;;8.70;5.97;;;11.10;99.90;;;;;;5008616;28;20445;-66
2021/04/11 00:16:00;;;;;;;6.10;5.33;;;11.00;99.90;;;;;;5008926;28;20544;-67
2021/04/11 00:18:26;;;;;;;6.23;5.20;;;10.80;99.90;;;;;;5002713;28;21175;-66
2021/04/11 00:20:53;;;;;;;8.37;5.93;;;10.70;99.90;;;;;;5009370;28;20540;-67
2021/04/11 00:23:22;;;;;;;7.60;5.80;;;10.60;99.90;;;;;;5009731;28;20456;-66
2021/04/11 00:25:49;;;;;;;6.50;5.30;;;10.50;99.90;;;;;;5009332;28;20524;-66
2021/04/11 00:28:16;;;;;;;9.17;5.53;;;10.40;99.90;;;;;;5009196;28;20484;-66
2021/04/11 00:30:44;;;;;;;7.77;5.63;;;10.40;99.90;;;;;;5008635;28;20468;-66
2021/04/11 00:33:25;;;;;;;8.90;5.33;;;10.40;99.90;;;;;;5009226;28;20848;-67
2021/04/11 00:35:57;;;;;;;7.97;4.70;;;10.40;99.90;;;;;;5010003;28;20532;-66
2021/04/11 00:38:24;;;;;;;5.93;4.60;;;10.30;99.90;;;;;;5009803;28;20474;-66
2021/04/11 00:40:51;;;;;;;6.50;4.50;;;10.20;99.90;;;;;;5009727;28;20576;-65
2021/04/11 00:43:19;;;;;;;6.63;4.10;;;10.10;99.90;;;;;;5009704;28;20438;-66
2021/04/11 00:45:54;;;;;;;5.27;4.80;;;10.00;99.90;;;;;;5009750;28;20484;-67
2021/04/11 00:48:25;;;;;;;5.97;4.47;;;9.90;99.90;;;;;;5009849;28;20528;-67
2021/04/11 00:50:54;;;;;;;6.50;4.50;;;9.80;99.90;;;;;;5009759;28;20466;-65
2021/04/11 00:53:20;;;;;;;5.40;4.40;;;9.70;99.90;;;;;;5009694;28;20549;-66
2021/04/11 00:55:48;;;;;;;5.50;3.63;;;9.70;99.90;;;;;;5010031;28;20628;-66
2021/04/11 00:58:14;;;;;;;5.77;4.07;;;9.60;99.90;;;;;;5010022;28;20575;-66
2021/04/11 01:00:41;;;;;;;8.90;4.50;;;9.60;99.90;;;;;;5009758;28;20494;-66
2021/04/11 01:03:08;;;;;;;4.87;3.73;;;9.60;99.90;;;;;;5012423;28;20446;-66
2021/04/11 01:05:41;;;;;;;5.97;4.30;;;9.60;99.90;;;;;;5013790;28;20525;-65
2021/04/11 01:08:11;;;;;;;5.80;4.13;;;9.50;99.90;;;;;;5013665;28;20524;-68
2021/04/11 01:10:41;;;;;;;5.83;3.60;;;9.50;99.90;;;;;;5013444;28;20476;-67
2021/04/11 01:13:09;;;;;;;5.00;3.93;;;9.60;99.90;;;;;;5013879;28;20460;-66
2021/04/11 01:15:36;;;;;;;5.80;3.90;;;9.50;99.90;;;;;;5014130;28;20625;-66
2021/04/11 01:18:03;;;;;;;4.10;2.90;;;9.50;99.90;;;;;;5013478;28;20442;-67
2021/04/11 01:20:31;;;;;;;6.33;2.80;;;9.50;99.90;;;;;;5013279;28;20545;-66
2021/04/11 01:23:16;;;;;;;4.00;3.60;;;9.50;99.90;;;;;;5013151;28;20449;-67
2021/04/11 01:25:45;;;;;;;3.90;2.90;;;9.50;99.90;;;;;;5013401;28;20426;-67
2021/04/11 01:28:15;;;;;;;5.93;2.60;;;9.50;99.90;;;;;;5013420;28;20540;-66
2021/04/11 01:30:43;;;;;;;4.20;3.50;;;9.50;99.90;;;;;;5013119;28;20462;-66
2021/04/11 01:33:13;;;;;;;6.13;4.00;;;9.60;99.90;;;;;;5013113;28;20450;-66
2021/04/11 01:35:40;;;;;;;5.33;3.77;;;9.70;99.90;;;;;;5013329;28;20525;-66
2021/04/11 01:38:08;;;;;;;5.37;3.03;;;9.80;99.90;;;;;;5013216;28;20482;-67
2021/04/11 01:40:39;;;;;;;3.47;2.70;;;9.90;99.90;;;;;;5012927;28;20496;-67
2021/04/11 01:43:08;;;;;;;4.00;3.03;;;10.00;99.90;;;;;;5012944;28;20488;-66
2021/04/11 01:45:38;;;;;;;4.13;2.90;;;10.10;99.90;;;;;;5013035;28;20821;-66
2021/04/11 01:48:06;;;;;;;4.27;3.50;;;10.20;99.90;;;;;;5013140;28;20504;-66
2021/04/11 01:50:33;;;;;;;4.57;3.90;;;10.30;99.90;;;;;;5012573;28;20561;-67
2021/04/11 01:53:00;;;;;;;4.30;3.43;;;10.30;99.90;;;;;;5012533;28;20451;-66
2021/04/11 01:55:27;;;;;;;5.00;3.63;;;10.30;99.90;;;;;;5012898;28;20910;-66
2021/04/11 01:57:54;;;;;;;3.73;2.83;;;10.40;99.90;;;;;;5012576;28;20443;-66
2021/04/11 02:00:27;;;;;;;3.50;2.50;;;10.40;99.90;;;;;;5012599;28;20469;-67
2021/04/11 02:02:54;;;;;;;3.47;2.60;;;10.40;99.90;;;;;;5012271;28;20450;-66
2021/04/11 02:05:22;;;;;;;4.00;2.70;;;10.50;99.90;;;;;;5012652;28;20453;-66
2021/04/11 02:07:49;;;;;;;5.60;3.47;;;10.60;99.90;;;;;;5012406;28;20445;-65
2021/04/11 02:10:17;;;;;;;4.97;2.47;;;10.60;99.90;;;;;;5012580;28;20520;-68
2021/04/11 02:12:46;;;;;;;3.60;3.00;;;10.70;99.90;;;;;;5011621;28;20456;-66
2021/04/11 02:15:16;;;;;;;6.23;2.90;;;10.80;99.90;;;;;;5012537;28;20549;-66
2021/04/11 02:17:44;;;;;;;4.10;2.87;;;10.80;99.90;;;;;;5012290;28;20446;-65
2021/04/11 02:20:12;;;;;;;3.10;2.80;;;10.80;99.90;;;;;;5012340;28;20967;-68
2021/04/11 02:22:39;;;;;;;4.80;3.40;;;10.90;99.90;;;;;;5012076;28;20477;-66
2021/04/11 02:25:09;;;;;;;3.37;2.83;;;10.90;99.90;;;;;;5012063;28;20485;-66
2021/04/11 02:27:35;;;;;;;4.60;2.90;;;11.10;99.90;;;;;;5012150;28;20492;-67
2021/04/11 02:30:05;;;;;;;4.70;2.90;;;11.00;99.90;;;;;;5011971;28;20476;-67
2021/04/11 02:32:31;;;;;;;5.20;2.67;;;11.00;99.90;;;;;;5011794;28;20442;-65
2021/04/11 02:35:01;;;;;;;5.70;3.30;;;11.00;99.90;;;;;;5011906;28;20471;-67
2021/04/11 02:37:31;;;;;;;7.07;3.50;;;11.10;99.90;;;;;;5011919;28;20454;-65
2021/04/11 02:39:59;;;;;;;6.00;4.20;;;11.00;99.90;;;;;;5010981;28;20473;-65
2021/04/11 02:42:28;;;;;;;3.63;3.10;;;11.10;99.90;;;;;;5011314;28;20495;-65
2021/04/11 02:44:56;;;;;;;4.80;3.60;;;11.00;99.90;;;;;;5012042;28;21274;-67
2021/04/11 02:47:23;;;;;;;5.33;3.93;;;11.00;99.90;;;;;;5011834;28;20446;-69
2021/04/11 02:49:52;;;;;;;4.97;3.97;;;11.00;99.90;;;;;;5011731;28;20971;-66
2021/04/11 02:52:25;;;;;;;6.53;3.23;;;11.00;99.90;;;;;;5011714;28;20452;-67
2021/04/11 02:54:52;;;;;;;5.23;3.50;;;11.00;99.90;;;;;;5011498;28;20430;-66
2021/04/11 02:57:19;;;;;;;5.83;3.83;;;10.90;99.90;;;;;;5011523;28;20477;-65
2021/04/11 02:59:46;;;;;;;4.20;3.70;;;10.90;99.90;;;;;;5011689;28;20500;-65
2021/04/11 03:02:14;;;;;;;5.00;3.53;;;10.80;99.90;;;;;;5011291;28;20565;-67
2021/04/11 03:04:41;;;;;;;4.73;3.50;;;10.70;99.90;;;;;;5011281;28;20454;-68
2021/04/11 03:07:11;;;;;;;4.30;3.70;;;10.60;99.90;;;;;;5011480;28;20925;-67
2021/04/11 03:09:42;;;;;;;6.70;4.20;;;10.50;99.90;;;;;;5011649;28;20513;-65
2021/04/11 03:12:10;;;;;;;5.20;3.40;;;10.50;99.90;;;;;;5011343;28;20446;-65
2021/04/11 03:14:39;;;;;;;5.37;4.10;;;10.40;99.90;;;;;;5011213;28;20528;-65
2021/04/11 03:17:11;;;;;;;4.20;3.53;;;10.40;99.90;;;;;;5011257;28;20500;-68
2021/04/11 03:19:42;;;;;;;6.00;4.10;;;10.30;99.90;;;;;;5011156;28;20452;-65
2021/04/11 03:22:09;;;;;;;4.83;3.70;;;10.10;99.90;;;;;;5011016;28;20477;-65
2021/04/11 03:24:36;;;;;;;5.23;4.40;;;10.10;99.90;;;;;;5010154;28;20454;-66
2021/04/11 03:27:10;;;;;;;4.97;4.27;;;10.00;99.90;;;;;;5012046;28;20445;-66
2021/04/11 03:29:42;;;;;;;4.33;3.60;;;9.90;99.90;;;;;;5011147;28;20528;-66
2021/04/11 03:32:13;;;;;;;5.10;4.60;;;10.00;99.90;;;;;;5011116;28;20446;-67
2021/04/11 03:34:42;;;;;;;6.63;4.63;;;9.90;99.90;;;;;;5010829;28;20548;-65
2021/04/11 03:37:11;;;;;;;6.00;4.50;;;9.90;99.90;;;;;;5010731;28;20941;-65
2021/04/11 03:39:38;;;;;;;4.57;4.17;;;9.90;99.90;;;;;;5010452;28;20442;-65
2021/04/11 03:42:08;;;;;;;8.73;4.93;;;10.00;99.90;;;;;;5010728;28;20482;-65
2021/04/11 03:44:35;;;;;;;7.73;5.90;;;9.90;99.90;;;;;;5010419;28;20548;-67
2021/04/11 03:47:05;;;;;;;7.07;5.63;;;10.00;99.90;;;;;;5010657;28;20999;-68
2021/04/11 03:49:35;;;;;;;6.70;6.00;;;10.10;99.90;;;;;;5010495;28;20820;-64
2021/04/11 03:52:08;;;;;;;5.50;4.50;;;10.00;99.90;;;;;;5010765;28;20457;-65
2021/04/11 03:54:37;;;;;;;6.10;4.53;;;10.00;99.90;;;;;;5010490;28;20536;-64
2021/04/11 03:57:08;;;;;;;4.83;4.33;;;10.00;99.90;;;;;;5010558;28;20537;-65
2021/04/11 03:59:40;;;;;;;4.90;4.40;;;9.90;99.90;;;;;;5010400;28;20446;-67
2021/04/11 04:02:08;;;;;;;6.97;4.80;;;9.80;99.90;;;;;;5010613;28;20573;-67
2021/04/11 04:04:40;;;;;;;6.60;4.43;;;9.80;99.90;;;;;;5010247;28;20445;-67
2021/04/11 04:07:12;;;;;;;5.00;4.20;;;9.80;99.90;;;;;;5010583;28;20560;-65
2021/04/11 04:09:40;;;;;;;5.17;4.40;;;9.80;99.90;;;;;;5010702;28;20856;-65
2021/04/11 04:12:29;;;;;;;6.30;4.40;;;9.70;99.90;;;;;;5010358;28;20529;-64
2021/04/11 04:15:09;;;;;;;4.97;3.83;;;9.80;99.90;;;;;;5010406;28;20536;-67
2021/04/11 04:17:50;;;;;;;6.07;4.53;;;9.90;99.90;;;;;;5010452;28;20476;-68
2021/04/11 04:20:26;;;;;;;5.13;4.07;;;9.80;99.90;;;;;;5010243;28;20472;-65
2021/04/11 04:23:04;;;;;;;6.90;4.20;;;9.90;99.90;;;;;;5010150;28;20489;-65
2021/04/11 04:26:04;;;;;;;4.63;3.97;;;9.90;99.90;;;;;;5010239;28;20485;-65
2021/04/11 04:28:50;;;;;;;4.80;3.70;;;9.90;99.90;;;;;;5010174;28;20456;-65
2021/04/11 04:31:26;;;;;;;4.67;3.90;;;10.00;99.90;;;;;;5010355;28;20544;-65
2021/04/11 04:33:59;;;;;;;5.30;4.33;;;10.10;99.90;;;;;;5010112;28;20441;-67
2021/04/11 04:36:38;;;;;;;5.73;4.40;;;10.10;99.90;;;;;;5011983;28;20454;-65
2021/04/11 04:39:15;;;;;;;6.40;4.30;;;10.10;99.90;;;;;;5014063;28;20454;-66
2021/04/11 04:41:46;;;;;;;5.20;4.40;;;10.10;99.90;;;;;;5013958;28;20485;-65
2021/04/11 04:44:22;;;;;;;7.43;4.13;;;10.10;99.90;;;;;;5013728;28;20441;-67
2021/04/11 04:46:53;;;;;;;4.60;4.17;;;10.10;99.90;;;;;;5014285;28;20457;-65
2021/04/11 04:49:25;;;;;;;4.90;4.40;;;10.10;99.90;;;;;;5014154;28;21001;-66
2021/04/11 04:51:56;;;;;;;8.90;5.07;;;10.10;99.90;;;;;;5013859;28;20458;-65
2021/04/11 04:54:31;;;;;;;5.03;4.53;;;10.10;99.90;;;;;;5013794;28;20446;-68
2021/04/11 04:57:03;;;;;;;5.80;4.83;;;10.00;99.90;;;;;;5014112;28;20445;-65
2021/04/11 04:59:40;;;;;;;5.03;4.53;;;10.00;99.90;;;;;;5014026;28;20460;-66
2021/04/11 05:02:10;;;;;;;5.73;4.70;;;10.00;99.90;;;;;;5013803;28;20509;-66
2021/04/11 05:04:41;;;;;;;5.53;3.97;;;10.00;99.90;;;;;;5013360;28;21119;-68
2021/04/11 05:07:12;;;;;;;4.87;4.37;;;10.10;99.90;;;;;;5013829;28;20472;-67
2021/04/11 05:09:46;;;;;;;8.20;4.17;;;10.10;99.90;;;;;;5013603;28;20449;-66
2021/04/11 05:12:16;;;;;;;10.13;4.83;;;10.10;99.90;;;;;;5013623;28;21018;-67
2021/04/11 05:14:48;;;;;;;5.10;3.90;;;10.10;99.90;;;;;;5013088;28;20446;-67
2021/04/11 05:17:18;;;;;;;5.67;4.20;;;10.10;99.90;;;;;;5013706;28;20454;-67
2021/04/11 05:19:48;;;;;;;5.03;4.43;;;10.20;99.90;;;;;;5013789;28;20532;-67
2021/04/11 05:22:21;;;;;;;7.30;4.57;;;10.20;99.90;;;;;;5013370;28;20485;-67
2021/04/11 05:24:54;;;;;;;5.90;4.20;;;10.30;99.90;;;;;;5013173;28;20446;-66
2021/04/11 05:27:29;;;;;;;7.10;5.20;;;10.30;99.90;;;;;;5013504;28;20853;-66
2021/04/11 05:30:01;;;;;;;6.30;5.30;;;10.40;99.90;;;;;;5013182;28;20556;-67
2021/04/11 05:32:28;;;;;;;5.63;4.37;;;10.40;99.90;;;;;;5013017;28;20984;-66
2021/04/11 05:34:56;;;;;;;6.67;4.80;;;10.40;99.90;;;;;;5012973;28;20532;-67
2021/04/11 05:37:39;;;;;;;4.67;4.27;;;10.60;99.90;;;;;;5013841;28;20533;-67
2021/04/11 05:40:13;;;;;;;4.50;4.07;;;10.60;99.90;;;;;;5013283;28;20481;-66
2021/04/11 05:42:54;;;;;;;5.33;4.17;;;10.70;99.90;;;;;;5012680;28;20565;-67
2021/04/11 05:45:25;;;;;;;8.40;5.67;;;10.80;99.90;;;;;;5012955;28;20453;-66
2021/04/11 05:48:01;;;;;;;5.80;4.50;;;10.90;99.90;;;;;;5012214;28;20533;-65
2021/04/11 05:50:36;;;;;;;5.50;3.83;;;11.00;99.90;;;;;;5013188;28;20557;-66
2021/04/11 05:53:05;;;;;;;5.90;4.10;;;11.10;99.90;;;;;;5013166;28;21023;-66
2021/04/11 05:55:36;;;;;;;5.40;4.13;;;11.20;99.90;;;;;;5013110;28;20449;-66
2021/04/11 05:58:07;;;;;;;5.13;4.63;;;11.30;99.90;;;;;;5012730;28;20469;-68
2021/04/11 06:00:39;;;;;;;6.60;4.50;;;11.30;99.90;;;;;;5012506;28;20596;-67
2021/04/11 06:03:08;;;;;;;5.67;5.17;;;11.40;99.90;;;;;;5012453;28;20532;-67
2021/04/11 06:05:38;;;;;;;4.40;4.00;;;11.50;99.90;;;;;;5012558;28;20513;-66
2021/04/11 06:08:12;;;;;;;5.77;4.63;;;11.50;99.90;;;;;;5012509;28;20442;-68
2021/04/11 06:10:45;;;;;;;6.40;4.60;;;11.60;99.90;;;;;;5012559;28;20539;-68
2021/04/11 06:13:19;;;;;;;6.03;4.80;;;11.70;99.90;;;;;;5012147;28;20446;-68
2021/04/11 06:15:53;;;;;;;6.00;5.40;;;11.80;99.90;;;;;;5012378;28;20539;-67
2021/04/11 06:18:20;;;;;;;5.60;4.30;;;12.00;99.90;;;;;;5012197;28;20531;-69
2021/04/11 06:20:47;;;;;;;5.40;4.53;;;12.10;99.90;;;;;;5011918;28;20470;-66
2021/04/11 06:23:24;;;;;;;5.33;4.57;;;12.30;99.90;;;;;;5011754;28;20548;-68
2021/04/11 06:25:59;;;;;;;5.77;4.50;;;12.30;99.90;;;;;;5012302;28;20464;-67
2021/04/11 06:28:36;;;;;;;4.70;4.17;;;12.40;99.90;;;;;;5012200;28;21022;-68
2021/04/11 06:31:06;;;;;;;6.57;4.90;;;12.50;99.90;;;;;;5011933;28;20476;-66
2021/04/11 06:33:36;;;;;;;6.10;4.47;;;12.70;99.90;;;;;;5011838;28;20442;-66
2021/04/11 06:36:05;;;;;;;5.30;4.80;;;12.80;99.90;;;;;;5011759;28;20450;-66
2021/04/11 06:38:42;;;;;;;5.47;4.90;;;12.90;99.90;;;;;;5011940;28;20480;-67
2021/04/11 06:41:22;;;;;;;4.80;4.37;;;13.00;99.90;;;;;;5011703;28;20639;-68
2021/04/11 06:44:06;;;;;;;6.10;5.40;;;13.20;99.90;;;;;;5011650;28;20438;-66
2021/04/11 06:46:39;;;;;;;12.27;5.67;;;13.30;99.90;;;;;;5011664;28;20515;-69
2021/04/11 06:49:20;;;;;;;6.10;4.87;;;13.50;99.90;;;;;;5011815;28;20877;-66
2021/04/11 06:52:12;;;;;;;6.07;5.20;;;13.50;99.90;;;;;;5003556;28;20458;-68
2021/04/11 06:54:59;;;;;;;6.90;4.17;;;13.60;99.90;;;;;;5001492;28;20885;-68
2021/04/11 06:57:43;;;;;;;5.70;4.40;;;13.70;99.90;;;;;;5011687;28;20515;-68
2021/04/11 07:00:22;;;;;;;7.37;5.07;;;14.00;99.90;;;;;;5010505;28;20466;-66
2021/04/11 07:03:25;;;;;;;5.30;4.47;;;14.30;99.90;;;;;;5011323;28;20483;-66
2021/04/11 07:06:17;;;;;;;5.50;4.70;;;14.70;99.90;;;;;;5001438;28;20457;-69
2021/04/11 07:09:08;;;;;;;10.23;4.40;;;14.70;99.90;;;;;;4991412;28;20533;-67
2021/04/11 07:12:10;;;;;;;5.77;4.63;;;14.90;99.90;;;;;;4991687;28;20533;-66
2021/04/11 07:15:10;;;;;;;6.63;5.00;;;14.90;99.90;;;;;;4991340;28;20885;-65
2021/04/11 07:18:28;;;;;;;5.10;4.60;;;14.90;99.90;;;;;;4991443;28;20534;-65
2021/04/11 07:21:34;;;;;;;6.00;4.33;;;14.80;99.90;;;;;;4989208;28;20474;-65
2021/04/11 07:24:19;;;;;;;5.47;4.53;;;14.70;99.90;;;;;;4990979;28;20453;-67
2021/04/11 07:26:54;;;;;;;5.00;4.40;;;14.60;99.90;;;;;;4991349;28;20460;-68
2021/04/11 07:29:38;;;;;;;5.37;4.53;;;14.50;99.90;;;;;;5008577;28;20453;-65
2021/04/11 07:32:33;;;;;;;6.53;4.37;;;14.60;99.90;;;;;;5010988;28;20540;-69
2021/04/11 07:35:15;;;;;;;5.90;4.00;;;14.60;99.90;;;;;;5011634;28;20460;-66
2021/04/11 07:37:57;;;;;;;6.30;4.67;;;14.80;99.90;;;;;;5007511;28;20537;-66
2021/04/11 07:40:31;;;;;;;4.60;4.20;;;14.80;99.90;;;;;;5013651;28;20584;-66
2021/04/11 07:43:15;;;;;;;6.50;4.00;;;15.10;99.90;;;;;;5011230;28;20486;-68
2021/04/11 07:46:18;;;;;;;6.50;4.30;;;15.30;99.90;;;;;;5010832;28;20488;-67
2021/04/11 07:49:10;;;;;;;4.90;4.10;;;15.70;99.90;;;;;;5010753;28;21031;-68
2021/04/11 07:51:53;;;;;;;5.07;3.70;;;16.10;99.90;;;;;;5010495;28;20549;-68
2021/04/11 07:54:45;;;;;;;4.77;4.27;;;16.60;99.90;;;;;;5010448;28;20449;-68
2021/04/11 07:57:27;;;;;;;5.00;3.83;;;17.10;99.90;;;;;;5010841;28;20532;-68
2021/04/11 08:00:13;;;;;;;5.03;3.30;;;17.40;99.90;;;;;;5011022;28;20508;-69
2021/04/11 08:03:01;;;;;;;6.00;3.50;;;17.60;98.60;;;;;;5017666;28;20529;-72
2021/04/11 08:05:42;;;;;;;4.70;3.50;;;17.70;99.10;;;;;;4984663;28;20519;-69
2021/04/11 08:08:30;;;;;;;4.23;3.23;;;18.00;98.50;;;;;;5015126;28;20545;-70
2021/04/11 08:11:27;;;;;;;4.10;2.70;;;18.10;95.40;;;;;;5005414;28;20618;-67
2021/04/11 08:14:01;;;;;;;4.60;2.93;;;18.30;96.80;;;;;;5005720;28;20842;-68
2021/04/11 08:16:52;;;;;;;5.17;3.03;;;18.60;95.10;;;;;;5014394;28;20450;-68
2021/04/11 08:19:52;;;;;;;4.10;2.40;;;18.70;94.60;;;;;;5009450;28;20446;-68
2021/04/11 08:22:40;;;;;;;7.00;3.13;;;19.10;94.20;;;;;;5013513;28;20476;-67
2021/04/11 08:25:18;;;;;;;4.70;2.90;;;19.60;91.80;;;;;;5008191;28;20458;-68
2021/04/11 08:28:37;;;;;;;3.80;2.20;;;19.90;91.80;;;;;;5010553;28;20544;-68
2021/04/11 08:31:30;;;;;;;3.23;1.87;;;20.30;90.40;;;;;;5010531;28;20469;-68
2021/04/11 08:34:21;;;;;;;3.23;1.47;;;20.20;86.00;;;;;;5010349;28;20529;-68
2021/04/11 08:37:40;;;;;;;2.87;1.83;;;20.10;87.10;;;;;;5010573;28;20525;-66
2021/04/11 08:40:14;;;;;;;3.70;1.60;;;19.90;88.40;;;;;;5009918;28;20479;-68
2021/04/11 08:43:11;;;;;;;3.10;1.90;;;19.70;88.20;;;;;;5010098;28;20547;-67
2021/04/11 08:45:53;;;;;;;3.00;1.80;;;19.70;86.90;;;;;;5010534;28;20562;-66
2021/04/11 08:48:36;;;;;;;4.80;1.80;;;19.60;86.10;;;;;;5010371;28;20446;-67
2021/04/11 08:51:10;;;;;;;4.60;1.63;;;19.70;87.20;;;;;;5010387;28;20545;-67
2021/04/11 08:53:45;;;;;;;2.70;1.20;;;19.80;85.90;;;;;;5009953;28;20539;-68
2021/04/11 08:56:19;;;;;;;1.90;1.20;;;19.80;85.10;;;;;;5010140;28;20528;-68
2021/04/11 08:58:55;;;;;;;2.70;1.40;;;19.70;85.60;;;;;;5010279;28;20500;-67
2021/04/11 09:01:35;;;;;;;3.77;1.50;;;19.90;88.10;;;;;;5009854;28;20527;-68
2021/04/11 09:04:11;;;;;;;3.60;1.40;;;20.30;84.20;;;;;;5009697;28;20457;-68
2021/04/11 09:06:46;;;;;;;2.63;1.40;;;20.30;82.20;;;;;;5015084;28;20530;-68
2021/04/11 09:09:27;;;;;;;3.30;1.33;;;20.10;82.60;;;;;;5017112;28;20830;-67
2021/04/11 09:12:05;;;;;;;4.73;1.50;;;20.20;83.50;;;;;;5009928;28;20528;-67
2021/04/11 09:14:49;;;;;;;3.50;1.10;;;19.90;81.50;;;;;;5016668;28;20442;-68
2021/04/11 09:17:43;;;;;;;2.40;1.30;;;19.90;82.80;;;;;;5025030;28;20528;-68
2021/04/11 09:20:17;;;;;;;3.17;1.10;;;19.60;82.60;;;;;;5019527;28;21138;-67
2021/04/11 09:23:05;;;;;;;2.53;1.40;;;19.20;83.50;;;;;;5029903;28;20488;-66
2021/04/11 09:25:35;;;;;;;2.80;1.30;;;19.00;84.80;;;;;;5033645;28;20450;-66
2021/04/11 09:28:31;;;;;;;2.80;1.40;;;19.20;85.30;;;;;;5033438;28;20503;-68
2021/04/11 09:31:28;;;;;;;3.30;1.33;;;19.30;84.50;;;;;;5033033;28;20832;-68
2021/04/11 09:34:22;;;;;;;3.53;1.20;;;19.60;84.80;;;;;;5033104;28;20440;-66
2021/04/11 09:37:01;;;;;;;2.60;1.30;;;19.70;82.40;;;;;;5033263;28;20809;-67
2021/04/11 09:39:43;;;;;;;5.50;1.40;;;19.60;84.10;;;;;;5033053;28;21019;-67
2021/04/11 09:42:35;;;;;;;3.70;1.43;;;19.90;82.40;;;;;;5032799;28;21091;-67
2021/04/11 09:45:34;;;;;;;2.10;1.00;;;20.10;81.70;;;;;;5004200;28;20460;-67
2021/04/11 09:48:41;;;;;;;1.90;1.10;;;20.30;80.30;;;;;;5033148;28;20471;-68
2021/04/11 09:51:25;;;;;;;2.40;1.10;;;20.40;80.00;;;;;;5024978;28;20500;-66
2021/04/11 09:54:15;;;;;;;3.20;1.10;;;20.20;80.90;;;;;;5032584;28;20445;-68
2021/04/11 09:56:59;;;;;;;2.60;1.10;;;19.70;80.20;;;;;;5030225;28;20464;-69
2021/04/11 09:59:49;;;;;;;1.80;1.00;;;19.60;81.80;;;;;;5032832;28;20444;-67
2021/04/11 10:02:30;;;;;;;2.23;1.10;;;19.60;81.00;;;;;;5032594;28;21299;-66
2021/04/11 10:05:17;;;;;;;2.70;1.10;;;19.30;82.30;;;;;;5032456;28;20445;-67
2021/04/11 10:08:06;;;;;;;2.93;1.47;;;19.40;83.00;;;;;;5024349;28;20528;-68
2021/04/11 10:10:43;;;;;;;2.50;1.50;;;19.60;81.00;;;;;;5026077;28;20939;-67
2021/04/11 10:13:22;;;;;;;2.70;1.47;;;19.70;81.50;;;;;;5032442;28;20520;-67
2021/04/11 10:15:57;;;;;;;2.50;1.40;;;20.00;80.90;;;;;;5032395;28;20524;-66
2021/04/11 10:19:04;;;;;;;2.43;1.40;;;20.90;81.70;;;;;;5032595;28;20448;-68
2021/04/11 10:21:37;;;;;;;4.00;1.87;;;21.80;78.30;;;;;;5032208;28;21295;-70
2021/04/11 10:24:23;;;;;;;3.37;1.50;;;22.30;75.80;;;;;;5021446;28;20465;-67
2021/04/11 10:26:54;;;;;;;4.40;1.37;;;21.80;73.40;;;;;;4992787;28;20489;-67
2021/04/11 10:29:23;;;;;;;3.00;1.73;;;21.60;75.60;;;;;;4992753;28;20455;-66
2021/04/11 10:31:55;;;;;;;6.13;1.67;;;21.50;72.20;;;;;;4992673;28;20473;-68
2021/04/11 10:34:29;;;;;;;3.20;1.40;;;21.70;73.90;;;;;;4992673;28;20474;-68
2021/04/11 10:37:06;;;;;;;2.93;1.40;;;22.10;74.80;;;;;;4992535;28;20454;-69
2021/04/11 10:39:44;;;;;;;3.83;1.40;;;22.00;71.30;;;;;;4992409;28;20482;-68
2021/04/11 10:42:23;;;;;;;3.53;1.50;;;22.20;75.20;;;;;;4992550;28;20621;-69
2021/04/11 10:45:17;;;;;;;3.40;1.67;;;22.20;69.40;;;;;;4992481;28;20482;-70
2021/04/11 10:48:20;;;;;;;3.03;1.40;;;21.80;70.10;;;;;;4992071;28;20505;-67
2021/04/11 10:50:56;;;;;;;2.70;1.40;;;21.40;71.40;;;;;;4985542;28;20517;-68
2021/04/11 10:53:38;;;;;;;3.07;1.30;;;21.00;74.10;;;;;;4991906;28;20523;-68
2021/04/11 10:56:22;;;;;;;3.40;1.53;;;20.60;74.60;;;;;;4992252;28;20948;-67
2021/04/11 10:59:15;;;;;;;2.93;1.60;;;20.30;74.70;;;;;;4992243;28;20498;-66
2021/04/11 11:02:03;;;;;;;2.83;1.37;;;19.70;76.00;;;;;;5004824;28;20600;-67
2021/04/11 11:04:57;;;;;;;2.70;1.50;;;19.50;76.70;;;;;;5004756;28;20449;-66
2021/04/11 11:07:53;;;;;;;2.27;1.57;;;19.50;76.00;;;;;;5011515;28;20452;-67
2021/04/11 11:10:27;;;;;;;3.90;1.40;;;19.20;75.60;;;;;;5011018;28;20844;-67
2021/04/11 11:13:29;;;;;;;5.30;1.70;;;19.30;77.30;;;;;;5013914;28;20492;-66
2021/04/11 11:16:13;;;;;;;3.13;1.43;;;19.20;75.80;;;;;;4977091;28;20433;-68
2021/04/11 11:19:02;;;;;;;2.77;1.57;;;19.10;76.70;;;;;;5022667;28;20553;-68
2021/04/11 11:21:58;;;;;;;2.87;2.00;;;18.90;76.60;;;;;;4986555;28;21084;-67
2021/04/11 11:24:55;;;;;;;5.17;1.53;;;18.70;78.50;;;;;;5011067;28;20441;-67
2021/04/11 11:27:45;;;;;;;3.10;1.70;;;18.70;79.30;;;;;;5011111;28;20446;-68
2021/04/11 11:30:36;;;;;;;7.00;1.80;;;18.70;77.50;;;;;;5010675;28;20978;-68
2021/04/11 11:33:22;;;;;;;3.93;1.50;;;18.60;78.00;;;;;;5008394;28;20539;-69
2021/04/11 11:36:01;;;;;;;3.03;1.60;;;18.60;78.60;;;;;;5011028;28;20797;-67
2021/04/11 11:38:34;;;;;;;4.10;1.67;;;18.50;78.10;;;;;;5011074;28;20452;-67
2021/04/11 11:41:12;;;;;;;2.83;1.60;;;18.40;78.20;;;;;;5010730;28;20509;-68
2021/04/11 11:43:49;;;;;;;2.77;1.80;;;18.30;78.40;;;;;;5010498;28;20525;-67
2021/04/11 11:46:26;;;;;;;6.30;2.20;;;18.40;78.20;;;;;;5010010;28;20441;-68
2021/04/11 11:49:10;;;;;;;4.70;1.67;;;18.60;78.40;;;;;;5010891;28;20525;-66
2021/04/11 11:51:45;;;;;;;3.30;2.03;;;19.00;78.30;;;;;;5010729;28;20563;-68
2021/04/11 11:54:20;;;;;;;3.80;2.50;;;19.30;78.40;;;;;;5010374;28;20978;-70
2021/04/11 11:56:58;;;;;;;4.00;1.77;;;19.60;76.60;;;;;;5014992;28;20438;-67
2021/04/11 11:59:27;;;;;;;4.97;2.50;;;19.80;76.30;;;;;;5027791;28;20437;-67
2021/04/11 12:01:58;;;;;;;2.60;1.90;;;20.00;75.70;;;;;;5009299;28;20513;-67
2021/04/11 12:04:47;;;;;;;2.97;1.77;;;20.30;75.50;;;;;;5011305;28;20473;-67
2021/04/11 12:07:22;;;;;;;5.60;1.87;;;20.80;78.70;;;;;;5010744;28;20542;-69
2021/04/11 12:10:20;;;;;;;2.30;1.10;;;21.60;78.50;;;;;;5010556;28;20445;-67
2021/04/11 12:12:58;;;;;;;2.60;1.30;;;22.70;75.40;;;;;;4975548;28;20576;-67
2021/04/11 12:15:29;;;;;;;4.50;1.60;;;22.80;73.70;;;;;;5005087;28;20554;-67
2021/04/11 12:18:07;;;;;;;2.20;1.30;;;22.00;72.50;;;;;;5009514;28;21206;-69
2021/04/11 12:20:42;;;;;;;3.47;1.70;;;21.50;76.00;;;;;;5012081;28;20563;-67
2021/04/11 12:23:19;;;;;;;5.83;1.60;;;20.80;76.80;;;;;;5013228;28;20509;-68
2021/04/11 12:25:45;;;;;;;3.07;1.40;;;20.30;78.70;;;;;;5012198;28;20532;-67
2021/04/11 12:28:22;;;;;;;2.20;1.40;;;20.10;80.80;;;;;;5010050;28;20442;-67
2021/04/11 12:30:49;;;;;;;4.93;2.10;;;20.00;80.40;;;;;;5012741;28;20461;-70
2021/04/11 12:33:28;;;;;;;2.47;1.53;;;19.90;79.20;;;;;;5014924;28;20520;-68
2021/04/11 12:36:02;;;;;;;3.20;1.70;;;20.10;78.30;;;;;;5010320;28;20489;-69
2021/04/11 12:38:36;;;;;;;3.07;1.53;;;20.10;79.30;;;;;;5010238;28;20449;-68
2021/04/11 12:41:08;;;;;;;2.50;1.60;;;20.50;78.30;;;;;;5010164;28;20477;-70
2021/04/11 12:43:41;;;;;;;2.87;1.30;;;20.60;79.00;;;;;;5009781;28;20569;-71
2021/04/11 12:46:15;;;;;;;3.40;1.70;;;20.10;79.60;;;;;;4997641;28;20443;-68
2021/04/11 12:48:54;;;;;;;2.83;1.70;;;19.70;80.10;;;;;;5001734;28;20292;-68
2021/04/11 12:51:28;;;;;;;3.70;1.50;;;19.60;80.00;;;;;;5018402;28;20465;-68
2021/04/11 12:54:05;;;;;;;5.80;1.97;;;19.30;81.40;;;;;;5027068;28;20444;-68
2021/04/11 12:56:36;;;;;;;2.40;1.37;;;19.00;83.50;;;;;;5026071;28;20531;-69
2021/04/11 12:59:09;;;;;;;5.40;1.77;;;18.70;84.70;;;;;;5024620;28;20467;-67
2021/04/11 13:01:42;;;;;;;4.33;1.60;;;18.50;86.50;;;;;;5013544;28;20494;-68
2021/04/11 13:04:19;;;;;;;2.40;1.50;;;18.30;87.50;;;;;;5001177;28;20513;-65
2021/04/11 13:06:52;;;;;;;2.57;1.40;;;18.30;87.80;;;;;;5001054;28;20525;-65
2021/04/11 13:09:30;;;;;;;6.10;1.90;;;18.30;87.00;;;;;;4994181;28;21040;-66
2021/04/11 13:12:07;;;;;;;3.60;1.60;;;18.40;87.60;;;;;;4995144;28;20443;-65
2021/04/11 13:14:40;;;;;;;3.10;1.60;;;18.50;88.70;;;;;;4993995;28;20892;-67
2021/04/11 13:17:12;;;;;;;4.10;1.70;;;18.80;88.60;;;;;;4999689;28;20442;-66
2021/04/11 13:19:49;;;;;;;8.20;2.17;;;19.20;86.60;;;;;;5013989;28;20442;-64
2021/04/11 13:22:21;;;;;;;3.37;1.50;;;19.20;86.40;;;;;;5013685;28;20567;-66
2021/04/11 13:24:58;;;;;;;3.30;1.70;;;19.10;86.60;;;;;;5013832;28;20446;-65
2021/04/11 13:27:30;;;;;;;2.87;1.80;;;19.20;85.70;;;;;;5014242;28;20481;-65
2021/04/11 13:30:03;;;;;;;3.83;1.83;;;19.10;85.40;;;;;;5013783;28;20465;-65
2021/04/11 13:32:39;;;;;;;2.03;1.37;;;19.10;85.30;;;;;;5010650;28;20456;-66
2021/04/11 13:35:18;;;;;;;4.97;2.10;;;19.00;84.50;;;;;;5017548;28;20542;-65
2021/04/11 13:37:48;;;;;;;4.20;1.60;;;18.80;85.90;;;;;;5017239;28;20540;-67